sensor_id;sensor_type;location;lat;lon;timestamp;pressure;altitude;pressure_sealevel;temperature;humidity
62436;BME280;48480;50.252;18.848;2023-06-22T00:01:07;98829.38;;;21.23;76.37
62436;BME280;48480;50.252;18.848;2023-06-22T00:03:51;98837.25;;;21.22;76.42
62436;BME280;48480;50.252;18.848;2023-06-22T00:06:35;98838.88;;;21.20;76.46
62436;BME280;48480;50.252;18.848;2023-06-22T00:09:20;98836.02;;;21.13;76.56
62436;BME280;48480;50.252;18.848;2023-06-22T00:12:04;98845.77;;;21.16;76.61
62436;BME280;48480;50.252;18.848;2023-06-22T00:14:48;98853.30;;;21.13;76.81
62436;BME280;48480;50.252;18.848;2023-06-22T00:17:32;98854.83;;;21.09;76.88
62436;BME280;48480;50.252;18.848;2023-06-22T00:20:16;98855.57;;;21.05;77.01
62436;BME280;48480;50.252;18.848;2023-06-22T00:23:03;98850.95;;;21.03;77.10
62436;BME280;48480;50.252;18.848;2023-06-22T00:25:54;98854.75;;;21.00;77.20
62436;BME280;48480;50.252;18.848;2023-06-22T00:28:38;98855.58;;;20.97;77.30
62436;BME280;48480;50.252;18.848;2023-06-22T00:31:23;98853.14;;;20.94;77.37
62436;BME280;48480;50.252;18.848;2023-06-22T00:34:08;98850.29;;;20.91;77.43
62436;BME280;48480;50.252;18.848;2023-06-22T00:36:52;98847.54;;;20.87;77.36
62436;BME280;48480;50.252;18.848;2023-06-22T00:39:37;98849.54;;;20.85;77.37
62436;BME280;48480;50.252;18.848;2023-06-22T00:42:21;98848.50;;;20.82;77.44
62436;BME280;48480;50.252;18.848;2023-06-22T00:45:05;98848.44;;;20.77;77.36
62436;BME280;48480;50.252;18.848;2023-06-22T00:47:54;98851.83;;;20.73;77.48
62436;BME280;48480;50.252;18.848;2023-06-22T00:50:40;98849.30;;;20.70;77.58
62436;BME280;48480;50.252;18.848;2023-06-22T00:53:24;98848.81;;;20.68;77.65
62436;BME280;48480;50.252;18.848;2023-06-22T00:56:08;98855.97;;;20.66;77.66
62436;BME280;48480;50.252;18.848;2023-06-22T00:58:53;98861.80;;;20.65;77.78
62436;BME280;48480;50.252;18.848;2023-06-22T01:01:37;98861.50;;;20.67;77.76
62436;BME280;48480;50.252;18.848;2023-06-22T01:04:35;98856.53;;;20.68;77.75
62436;BME280;48480;50.252;18.848;2023-06-22T01:10:38;98846.10;;;20.69;77.62
62436;BME280;48480;50.252;18.848;2023-06-22T01:16:37;98841.17;;;20.66;77.62
62436;BME280;48480;50.252;18.848;2023-06-22T01:22:33;98851.65;;;20.64;77.75
62436;BME280;48480;50.252;18.848;2023-06-22T01:25:47;98853.45;;;20.64;77.82
62436;BME280;48480;50.252;18.848;2023-06-22T01:28:53;98851.30;;;20.60;77.68
62436;BME280;48480;50.252;18.848;2023-06-22T01:31:39;98848.40;;;20.54;77.99
62436;BME280;48480;50.252;18.848;2023-06-22T01:34:25;98849.52;;;20.50;78.17
62436;BME280;48480;50.252;18.848;2023-06-22T01:37:09;98854.63;;;20.48;78.42
62436;BME280;48480;50.252;18.848;2023-06-22T01:39:55;98859.45;;;20.46;78.46
62436;BME280;48480;50.252;18.848;2023-06-22T01:42:40;98854.29;;;20.38;78.52
62436;BME280;48480;50.252;18.848;2023-06-22T01:45:26;98869.39;;;20.43;78.56
62436;BME280;48480;50.252;18.848;2023-06-22T01:48:10;98863.70;;;20.43;78.72
62436;BME280;48480;50.252;18.848;2023-06-22T01:50:55;98862.63;;;20.44;78.64
62436;BME280;48480;50.252;18.848;2023-06-22T01:53:39;98860.37;;;20.45;78.66
62436;BME280;48480;50.252;18.848;2023-06-22T01:56:23;98859.29;;;20.46;78.55
62436;BME280;48480;50.252;18.848;2023-06-22T01:59:15;98854.54;;;20.45;78.54
62436;BME280;48480;50.252;18.848;2023-06-22T02:02:08;98854.13;;;20.44;78.59
62436;BME280;48480;50.252;18.848;2023-06-22T02:05:03;98856.85;;;20.43;78.62
62436;BME280;48480;50.252;18.848;2023-06-22T02:08:10;98860.56;;;20.41;78.71
62436;BME280;48480;50.252;18.848;2023-06-22T02:10:55;98863.80;;;20.39;78.77
62436;BME280;48480;50.252;18.848;2023-06-22T02:13:42;98866.91;;;20.39;78.81
62436;BME280;48480;50.252;18.848;2023-06-22T02:16:27;98873.21;;;20.38;78.81
62436;BME280;48480;50.252;18.848;2023-06-22T02:19:13;98877.40;;;20.37;78.84
62436;BME280;48480;50.252;18.848;2023-06-22T02:22:03;98882.84;;;20.36;78.91
62436;BME280;48480;50.252;18.848;2023-06-22T02:24:47;98882.83;;;20.34;79.13
62436;BME280;48480;50.252;18.848;2023-06-22T02:27:32;98875.86;;;20.32;79.20
62436;BME280;48480;50.252;18.848;2023-06-22T02:30:16;98878.64;;;20.31;79.20
62436;BME280;48480;50.252;18.848;2023-06-22T02:33:00;98888.98;;;20.30;79.02
62436;BME280;48480;50.252;18.848;2023-06-22T02:35:43;98890.83;;;20.28;79.11
62436;BME280;48480;50.252;18.848;2023-06-22T02:38:31;98895.77;;;20.24;79.24
62436;BME280;48480;50.252;18.848;2023-06-22T02:41:20;98894.79;;;20.21;79.23
62436;BME280;48480;50.252;18.848;2023-06-22T02:44:04;98900.05;;;20.19;79.42
62436;BME280;48480;50.252;18.848;2023-06-22T02:46:48;98904.00;;;20.17;79.38
62436;BME280;48480;50.252;18.848;2023-06-22T02:49:33;98905.71;;;20.17;79.44
62436;BME280;48480;50.252;18.848;2023-06-22T02:52:16;98909.50;;;20.16;79.55
62436;BME280;48480;50.252;18.848;2023-06-22T02:55:00;98911.02;;;20.14;79.71
62436;BME280;48480;50.252;18.848;2023-06-22T02:57:44;98909.98;;;20.11;79.89
62436;BME280;48480;50.252;18.848;2023-06-22T03:00:31;98915.00;;;20.09;80.03
62436;BME280;48480;50.252;18.848;2023-06-22T03:03:15;98920.83;;;20.08;80.09
62436;BME280;48480;50.252;18.848;2023-06-22T03:05:59;98920.73;;;20.07;80.19
62436;BME280;48480;50.252;18.848;2023-06-22T03:08:44;98927.25;;;20.06;80.33
62436;BME280;48480;50.252;18.848;2023-06-22T03:11:29;98929.53;;;20.07;80.48
62436;BME280;48480;50.252;18.848;2023-06-22T03:14:14;98929.38;;;20.07;80.56
62436;BME280;48480;50.252;18.848;2023-06-22T03:16:58;98932.95;;;20.07;80.58
62436;BME280;48480;50.252;18.848;2023-06-22T03:19:47;98939.26;;;20.07;80.68
62436;BME280;48480;50.252;18.848;2023-06-22T03:22:43;98934.45;;;20.04;80.63
62436;BME280;48480;50.252;18.848;2023-06-22T03:25:27;98927.77;;;19.98;80.69
62436;BME280;48480;50.252;18.848;2023-06-22T03:28:14;98944.06;;;20.12;80.76
62436;BME280;48480;50.252;18.848;2023-06-22T03:30:58;98935.86;;;20.15;80.65
62436;BME280;48480;50.252;18.848;2023-06-22T03:33:49;98928.60;;;20.18;80.58
62436;BME280;48480;50.252;18.848;2023-06-22T03:36:33;98928.20;;;20.22;80.50
62436;BME280;48480;50.252;18.848;2023-06-22T03:42:09;98883.61;;;19.95;80.24
62436;BME280;48480;50.252;18.848;2023-06-22T03:47:32;98943.79;;;20.37;80.29
62436;BME280;48480;50.252;18.848;2023-06-22T03:50:16;98939.19;;;20.42;80.19
62436;BME280;48480;50.252;18.848;2023-06-22T03:52:59;98939.42;;;20.48;80.08
62436;BME280;48480;50.252;18.848;2023-06-22T03:55:51;98941.94;;;20.55;79.95
62436;BME280;48480;50.252;18.848;2023-06-22T03:58:42;98939.38;;;20.61;79.77
62436;BME280;48480;50.252;18.848;2023-06-22T04:01:27;98940.73;;;20.70;79.52
62436;BME280;48480;50.252;18.848;2023-06-22T04:04:14;98940.23;;;20.80;79.21
62436;BME280;48480;50.252;18.848;2023-06-22T04:06:58;98937.59;;;20.89;78.89
62436;BME280;48480;50.252;18.848;2023-06-22T04:12:34;98942.44;;;21.04;78.65
62436;BME280;48480;50.252;18.848;2023-06-22T04:18:11;98956.14;;;21.10;78.33
62436;BME280;48480;50.252;18.848;2023-06-22T04:23:49;98957.10;;;21.21;78.26
62436;BME280;48480;50.252;18.848;2023-06-22T04:29:31;98956.45;;;21.42;77.98
62436;BME280;48480;50.252;18.848;2023-06-22T04:35:05;98957.96;;;23.07;74.28
62436;BME280;48480;50.252;18.848;2023-06-22T04:40:43;98958.90;;;24.92;69.49
62436;BME280;48480;50.252;18.848;2023-06-22T04:46:21;98971.36;;;26.41;65.01
62436;BME280;48480;50.252;18.848;2023-06-22T04:51:42;98979.48;;;27.35;61.81
62436;BME280;48480;50.252;18.848;2023-06-22T04:54:26;98974.38;;;27.76;60.11
62436;BME280;48480;50.252;18.848;2023-06-22T04:57:13;98973.45;;;28.21;58.80
62436;BME280;48480;50.252;18.848;2023-06-22T05:00:01;98969.66;;;28.68;57.16
62436;BME280;48480;50.252;18.848;2023-06-22T05:02:49;98939.25;;;28.90;55.69
62436;BME280;48480;50.252;18.848;2023-06-22T05:05:33;98970.41;;;29.43;54.91
62436;BME280;48480;50.252;18.848;2023-06-22T05:11:08;98965.86;;;29.85;53.49
62436;BME280;48480;50.252;18.848;2023-06-22T05:16:45;98977.98;;;29.19;54.00
62436;BME280;48480;50.252;18.848;2023-06-22T05:22:23;98971.81;;;28.15;55.51
62436;BME280;48480;50.252;18.848;2023-06-22T05:28:02;98983.16;;;27.48;57.37
62436;BME280;48480;50.252;18.848;2023-06-22T05:30:58;98988.24;;;27.15;58.04
62436;BME280;48480;50.252;18.848;2023-06-22T05:33:43;98992.48;;;26.92;58.85
62436;BME280;48480;50.252;18.848;2023-06-22T05:36:44;98994.07;;;26.71;59.65
62436;BME280;48480;50.252;18.848;2023-06-22T05:39:28;98992.08;;;26.43;60.31
62436;BME280;48480;50.252;18.848;2023-06-22T05:42:19;98992.13;;;26.24;60.98
62436;BME280;48480;50.252;18.848;2023-06-22T05:45:03;98993.67;;;26.02;61.68
62436;BME280;48480;50.252;18.848;2023-06-22T05:47:51;98993.61;;;25.86;62.14
62436;BME280;48480;50.252;18.848;2023-06-22T05:50:36;98997.95;;;25.74;62.72
62436;BME280;48480;50.252;18.848;2023-06-22T05:56:12;98993.64;;;25.64;63.49
62436;BME280;48480;50.252;18.848;2023-06-22T06:01:49;98993.59;;;26.01;61.85
62436;BME280;48480;50.252;18.848;2023-06-22T06:07:12;98994.41;;;26.06;60.82
62436;BME280;48480;50.252;18.848;2023-06-22T06:09:55;98996.83;;;26.08;61.08
62436;BME280;48480;50.252;18.848;2023-06-22T06:12:41;99003.18;;;26.18;60.90
62436;BME280;48480;50.252;18.848;2023-06-22T06:15:24;99011.16;;;26.61;60.01
62436;BME280;48480;50.252;18.848;2023-06-22T06:18:15;99012.97;;;27.14;58.99
62436;BME280;48480;50.252;18.848;2023-06-22T06:20:59;99016.25;;;27.72;57.11
62436;BME280;48480;50.252;18.848;2023-06-22T06:26:36;99019.81;;;28.84;54.77
62436;BME280;48480;50.252;18.848;2023-06-22T06:32:14;99017.98;;;29.93;51.86
62436;BME280;48480;50.252;18.848;2023-06-22T06:37:51;99011.98;;;30.46;49.99
62436;BME280;48480;50.252;18.848;2023-06-22T06:43:30;99014.11;;;31.24;48.05
62436;BME280;48480;50.252;18.848;2023-06-22T06:49:08;99008.37;;;31.52;45.70
62436;BME280;48480;50.252;18.848;2023-06-22T06:54:46;99010.90;;;31.94;45.38
62436;BME280;48480;50.252;18.848;2023-06-22T07:00:24;99009.48;;;32.11;43.57
62436;BME280;48480;50.252;18.848;2023-06-22T07:06:02;99015.82;;;32.20;43.13
62436;BME280;48480;50.252;18.848;2023-06-22T07:11:40;99015.65;;;32.36;42.40
62436;BME280;48480;50.252;18.848;2023-06-22T07:15:03;99006.11;;;32.39;42.25
62436;BME280;48480;50.252;18.848;2023-06-22T07:18:05;99013.11;;;32.52;41.91
62436;BME280;48480;50.252;18.848;2023-06-22T07:20:49;99015.27;;;32.75;41.82
62436;BME280;48480;50.252;18.848;2023-06-22T07:23:41;99009.36;;;32.86;40.67
62436;BME280;48480;50.252;18.848;2023-06-22T07:26:25;99017.92;;;32.87;40.40
62436;BME280;48480;50.252;18.848;2023-06-22T07:29:13;99018.53;;;32.98;40.03
62436;BME280;48480;50.252;18.848;2023-06-22T07:31:57;99018.93;;;33.04;39.11
62436;BME280;48480;50.252;18.848;2023-06-22T07:37:34;99015.28;;;32.81;39.30
62436;BME280;48480;50.252;18.848;2023-06-22T07:43:12;99022.27;;;33.17;38.75
62436;BME280;48480;50.252;18.848;2023-06-22T07:48:50;99030.04;;;33.26;37.91
62436;BME280;48480;50.252;18.848;2023-06-22T07:54:28;99034.95;;;33.43;37.54
62436;BME280;48480;50.252;18.848;2023-06-22T07:59:49;99031.76;;;33.62;37.39
62436;BME280;48480;50.252;18.848;2023-06-22T08:02:33;99028.54;;;33.54;37.29
62436;BME280;48480;50.252;18.848;2023-06-22T08:05:17;99032.15;;;33.52;37.11
62436;BME280;48480;50.252;18.848;2023-06-22T08:08:02;99038.47;;;33.57;37.50
62436;BME280;48480;50.252;18.848;2023-06-22T08:19:15;99040.09;;;33.72;36.48
62436;BME280;48480;50.252;18.848;2023-06-22T08:24:53;99047.98;;;33.63;36.33
62436;BME280;48480;50.252;18.848;2023-06-22T08:30:33;99062.83;;;33.59;35.83
62436;BME280;48480;50.252;18.848;2023-06-22T08:36:09;99060.98;;;33.51;35.37
62436;BME280;48480;50.252;18.848;2023-06-22T08:41:47;99060.55;;;33.73;35.18
62436;BME280;48480;50.252;18.848;2023-06-22T08:47:28;99051.64;;;33.95;35.30
62436;BME280;48480;50.252;18.848;2023-06-22T08:50:19;99058.52;;;33.92;35.53
62436;BME280;48480;50.252;18.848;2023-06-22T08:53:04;99061.65;;;33.80;35.25
62436;BME280;48480;50.252;18.848;2023-06-22T08:56:05;99058.14;;;33.84;34.99
62436;BME280;48480;50.252;18.848;2023-06-22T08:58:58;99056.17;;;34.01;35.04
62436;BME280;48480;50.252;18.848;2023-06-22T09:01:39;99056.94;;;34.02;34.90
62436;BME280;48480;50.252;18.848;2023-06-22T09:04:24;99059.47;;;34.05;34.28
62436;BME280;48480;50.252;18.848;2023-06-22T09:07:15;99057.83;;;34.03;34.49
62436;BME280;48480;50.252;18.848;2023-06-22T09:10:06;99052.54;;;34.04;34.37
62436;BME280;48480;50.252;18.848;2023-06-22T09:12:54;99051.67;;;34.24;34.39
62436;BME280;48480;50.252;18.848;2023-06-22T09:15:39;99048.63;;;34.28;33.99
62436;BME280;48480;50.252;18.848;2023-06-22T09:18:31;99044.64;;;34.08;34.22
62436;BME280;48480;50.252;18.848;2023-06-22T09:21:17;99043.56;;;34.15;34.48
62436;BME280;48480;50.252;18.848;2023-06-22T09:24:09;99032.59;;;34.22;34.40
62436;BME280;48480;50.252;18.848;2023-06-22T09:26:53;99026.60;;;34.24;33.89
62436;BME280;48480;50.252;18.848;2023-06-22T09:32:29;99001.80;;;34.25;33.55
62436;BME280;48480;50.252;18.848;2023-06-22T09:37:50;99016.33;;;33.97;33.12
62436;BME280;48480;50.252;18.848;2023-06-22T09:40:35;99009.77;;;33.75;32.97
62436;BME280;48480;50.252;18.848;2023-06-22T09:43:18;99011.23;;;33.80;33.10
62436;BME280;48480;50.252;18.848;2023-06-22T09:46:06;99001.39;;;33.93;33.42
62436;BME280;48480;50.252;18.848;2023-06-22T09:49:00;99013.23;;;34.24;33.02
62436;BME280;48480;50.252;18.848;2023-06-22T09:51:47;99006.64;;;34.37;32.57
62436;BME280;48480;50.252;18.848;2023-06-22T09:54:49;99000.08;;;34.30;32.66
62436;BME280;48480;50.252;18.848;2023-06-22T09:57:33;98996.80;;;34.27;32.87
62436;BME280;48480;50.252;18.848;2023-06-22T10:03:11;99000.64;;;34.36;32.67
62436;BME280;48480;50.252;18.848;2023-06-22T10:05:50;99000.88;;;34.45;32.42
62436;BME280;48480;50.252;18.848;2023-06-22T10:08:35;98998.17;;;34.54;31.85
62436;BME280;48480;50.252;18.848;2023-06-22T10:11:25;98995.17;;;34.57;31.93
62436;BME280;48480;50.252;18.848;2023-06-22T10:14:14;98992.85;;;34.68;31.98
62436;BME280;48480;50.252;18.848;2023-06-22T10:17:05;98990.52;;;34.74;31.27
62436;BME280;48480;50.252;18.848;2023-06-22T10:19:51;98992.41;;;34.65;31.01
62436;BME280;48480;50.252;18.848;2023-06-22T10:22:47;98992.79;;;34.55;30.96
62436;BME280;48480;50.252;18.848;2023-06-22T10:25:31;98990.62;;;34.57;31.24
62436;BME280;48480;50.252;18.848;2023-06-22T10:28:22;98986.66;;;34.59;31.20
62436;BME280;48480;50.252;18.848;2023-06-22T10:31:07;98982.05;;;34.55;31.59
62436;BME280;48480;50.252;18.848;2023-06-22T10:34:21;98979.42;;;34.72;31.39
62436;BME280;48480;50.252;18.848;2023-06-22T10:40:09;98983.89;;;35.06;31.40
62436;BME280;48480;50.252;18.848;2023-06-22T10:43:05;98984.15;;;35.18;31.12
62436;BME280;48480;50.252;18.848;2023-06-22T10:45:52;98976.54;;;35.22;30.99
62436;BME280;48480;50.252;18.848;2023-06-22T10:48:45;98981.98;;;35.32;30.81
62436;BME280;48480;50.252;18.848;2023-06-22T10:51:43;98980.85;;;35.01;30.84
62436;BME280;48480;50.252;18.848;2023-06-22T10:54:42;98982.67;;;34.53;31.38
62436;BME280;48480;50.252;18.848;2023-06-22T11:00:19;98982.44;;;33.67;32.51
62436;BME280;48480;50.252;18.848;2023-06-22T11:05:58;98975.16;;;33.36;32.96
62436;BME280;48480;50.252;18.848;2023-06-22T11:11:38;98971.88;;;33.17;32.96
62436;BME280;48480;50.252;18.848;2023-06-22T11:17:01;98964.88;;;33.49;32.85
62436;BME280;48480;50.252;18.848;2023-06-22T11:19:47;98964.08;;;33.69;32.28
62436;BME280;48480;50.252;18.848;2023-06-22T11:22:43;98965.64;;;33.79;32.14
62436;BME280;48480;50.252;18.848;2023-06-22T11:25:28;98964.23;;;33.78;32.09
62436;BME280;48480;50.252;18.848;2023-06-22T11:28:09;98959.09;;;33.65;32.48
62436;BME280;48480;50.252;18.848;2023-06-22T11:30:53;98956.61;;;33.43;32.71
62436;BME280;48480;50.252;18.848;2023-06-22T11:34:01;98949.96;;;33.29;32.44
62436;BME280;48480;50.252;18.848;2023-06-22T11:39:30;98955.41;;;33.33;32.18
62436;BME280;48480;50.252;18.848;2023-06-22T11:42:14;98930.38;;;33.16;32.06
62436;BME280;48480;50.252;18.848;2023-06-22T11:45:26;98953.12;;;33.21;32.25
62436;BME280;48480;50.252;18.848;2023-06-22T11:48:20;98953.23;;;33.21;32.16
62436;BME280;48480;50.252;18.848;2023-06-22T11:51:05;98943.41;;;33.28;31.98
62436;BME280;48480;50.252;18.848;2023-06-22T11:53:58;98939.52;;;33.42;32.65
62436;BME280;48480;50.252;18.848;2023-06-22T11:56:46;98939.16;;;33.58;32.50
62436;BME280;48480;50.252;18.848;2023-06-22T11:59:37;98929.19;;;33.59;31.73
62436;BME280;48480;50.252;18.848;2023-06-22T12:05:40;98923.61;;;33.57;31.75
62436;BME280;48480;50.252;18.848;2023-06-22T12:11:33;98917.02;;;33.66;31.97
62436;BME280;48480;50.252;18.848;2023-06-22T12:14:19;98914.61;;;33.70;32.09
62436;BME280;48480;50.252;18.848;2023-06-22T12:17:04;98914.20;;;33.78;32.05
62436;BME280;48480;50.252;18.848;2023-06-22T12:19:51;98914.15;;;33.80;32.21
62436;BME280;48480;50.252;18.848;2023-06-22T12:22:35;98915.32;;;33.85;31.75
62436;BME280;48480;50.252;18.848;2023-06-22T12:25:30;98906.05;;;33.83;31.59
62436;BME280;48480;50.252;18.848;2023-06-22T12:28:15;98902.84;;;33.72;31.82
62436;BME280;48480;50.252;18.848;2023-06-22T12:31:15;98900.59;;;33.57;31.77
62436;BME280;48480;50.252;18.848;2023-06-22T12:33:59;98899.27;;;33.33;31.97
62436;BME280;48480;50.252;18.848;2023-06-22T12:36:46;98896.71;;;33.30;32.20
62436;BME280;48480;50.252;18.848;2023-06-22T12:39:34;98889.41;;;33.27;32.20
62436;BME280;48480;50.252;18.848;2023-06-22T12:42:24;98879.02;;;33.17;32.12
62436;BME280;48480;50.252;18.848;2023-06-22T12:45:10;98883.27;;;33.21;32.09
62436;BME280;48480;50.252;18.848;2023-06-22T12:48:03;98882.56;;;33.22;31.53
62436;BME280;48480;50.252;18.848;2023-06-22T12:50:48;98882.53;;;33.27;31.86
62436;BME280;48480;50.252;18.848;2023-06-22T12:53:38;98874.20;;;33.29;31.47
62436;BME280;48480;50.252;18.848;2023-06-22T12:56:22;98870.55;;;33.28;31.79
62436;BME280;48480;50.252;18.848;2023-06-22T13:01:43;98866.82;;;33.30;31.89
62436;BME280;48480;50.252;18.848;2023-06-22T13:04:29;98867.34;;;33.29;31.69
62436;BME280;48480;50.252;18.848;2023-06-22T13:07:12;98867.42;;;33.23;31.97
62436;BME280;48480;50.252;18.848;2023-06-22T13:09:57;98836.73;;;33.03;31.74
62436;BME280;48480;50.252;18.848;2023-06-22T13:12:48;98848.11;;;33.18;31.59
62436;BME280;48480;50.252;18.848;2023-06-22T13:15:35;98859.05;;;33.21;31.01
62436;BME280;48480;50.252;18.848;2023-06-22T13:18:25;98854.70;;;33.12;31.43
62436;BME280;48480;50.252;18.848;2023-06-22T13:21:09;98850.30;;;33.06;32.23
62436;BME280;48480;50.252;18.848;2023-06-22T13:26:45;98845.39;;;33.10;31.90
62436;BME280;48480;50.252;18.848;2023-06-22T13:29:47;98838.23;;;33.03;31.73
62436;BME280;48480;50.252;18.848;2023-06-22T13:35:26;98839.96;;;33.03;31.20
62436;BME280;48480;50.252;18.848;2023-06-22T13:38:11;98841.72;;;32.99;31.40
62436;BME280;48480;50.252;18.848;2023-06-22T13:40:58;98835.81;;;33.00;31.52
62436;BME280;48480;50.252;18.848;2023-06-22T13:43:44;98823.71;;;32.97;31.49
62436;BME280;48480;50.252;18.848;2023-06-22T13:46:35;98840.07;;;33.08;31.56
62436;BME280;48480;50.252;18.848;2023-06-22T13:49:29;98837.70;;;33.10;31.59
62436;BME280;48480;50.252;18.848;2023-06-22T13:52:17;98843.60;;;33.03;31.46
62436;BME280;48480;50.252;18.848;2023-06-22T13:55:01;98838.98;;;32.96;31.38
62436;BME280;48480;50.252;18.848;2023-06-22T13:57:51;98830.15;;;32.92;31.60
62436;BME280;48480;50.252;18.848;2023-06-22T14:00:35;98828.20;;;32.88;31.53
62436;BME280;48480;50.252;18.848;2023-06-22T14:03:36;98821.65;;;32.79;31.59
62436;BME280;48480;50.252;18.848;2023-06-22T14:06:20;98828.61;;;32.73;31.53
62436;BME280;48480;50.252;18.848;2023-06-22T14:09:07;98827.61;;;32.75;32.02
62436;BME280;48480;50.252;18.848;2023-06-22T14:11:54;98829.39;;;32.86;31.54
62436;BME280;48480;50.252;18.848;2023-06-22T14:14:44;98825.27;;;32.89;31.06
62436;BME280;48480;50.252;18.848;2023-06-22T14:17:29;98828.48;;;32.92;30.95
62436;BME280;48480;50.252;18.848;2023-06-22T14:23:05;98826.23;;;33.01;30.62
62436;BME280;48480;50.252;18.848;2023-06-22T14:28:46;98818.66;;;33.00;30.31
62436;BME280;48480;50.252;18.848;2023-06-22T14:31:44;98819.66;;;32.95;30.39
62436;BME280;48480;50.252;18.848;2023-06-22T14:34:29;98811.97;;;32.91;31.26
62436;BME280;48480;50.252;18.848;2023-06-22T14:37:17;98812.95;;;32.92;31.45
62436;BME280;48480;50.252;18.848;2023-06-22T14:40:02;98808.05;;;32.99;31.49
62436;BME280;48480;50.252;18.848;2023-06-22T14:42:56;98804.77;;;33.00;31.24
62436;BME280;48480;50.252;18.848;2023-06-22T14:45:41;98809.70;;;33.04;31.41
62436;BME280;48480;50.252;18.848;2023-06-22T14:48:35;98811.19;;;32.98;30.72
62436;BME280;48480;50.252;18.848;2023-06-22T14:51:19;98795.95;;;32.82;30.28
62436;BME280;48480;50.252;18.848;2023-06-22T14:54:13;98802.76;;;32.85;30.60
62436;BME280;48480;50.252;18.848;2023-06-22T14:56:57;98801.34;;;32.85;31.18
62436;BME280;48480;50.252;18.848;2023-06-22T14:59:50;98806.23;;;32.90;31.49
62436;BME280;48480;50.252;18.848;2023-06-22T15:02:34;98804.16;;;32.91;31.26
62436;BME280;48480;50.252;18.848;2023-06-22T15:05:28;98803.30;;;32.93;31.47
62436;BME280;48480;50.252;18.848;2023-06-22T15:08:13;98802.61;;;32.88;31.45
62436;BME280;48480;50.252;18.848;2023-06-22T15:11:13;98797.85;;;32.90;31.65
62436;BME280;48480;50.252;18.848;2023-06-22T15:13:58;98800.09;;;32.94;31.57
62436;BME280;48480;50.252;18.848;2023-06-22T15:16:44;98800.65;;;32.94;31.26
62436;BME280;48480;50.252;18.848;2023-06-22T15:19:29;98795.92;;;32.87;31.14
62436;BME280;48480;50.252;18.848;2023-06-22T15:25:23;98789.53;;;32.80;31.21
62436;BME280;48480;50.252;18.848;2023-06-22T15:28:10;98757.67;;;32.54;31.54
62436;BME280;48480;50.252;18.848;2023-06-22T15:30:54;98784.17;;;32.70;31.46
62436;BME280;48480;50.252;18.848;2023-06-22T15:33:39;98771.20;;;32.58;31.41
62436;BME280;48480;50.252;18.848;2023-06-22T15:36:23;98783.27;;;32.60;31.48
62436;BME280;48480;50.252;18.848;2023-06-22T15:39:23;98782.76;;;32.57;31.54
62436;BME280;48480;50.252;18.848;2023-06-22T15:42:08;98781.17;;;32.56;31.67
62436;BME280;48480;50.252;18.848;2023-06-22T15:44:53;98785.13;;;32.57;31.68
62436;BME280;48480;50.252;18.848;2023-06-22T15:47:38;98774.15;;;32.45;31.58
62436;BME280;48480;50.252;18.848;2023-06-22T15:50:38;98786.77;;;32.53;31.74
62436;BME280;48480;50.252;18.848;2023-06-22T15:53:23;98785.77;;;32.48;31.67
62436;BME280;48480;50.252;18.848;2023-06-22T15:56:11;98774.53;;;32.35;31.65
62436;BME280;48480;50.252;18.848;2023-06-22T15:58:56;98777.08;;;32.33;31.75
62436;BME280;48480;50.252;18.848;2023-06-22T16:01:50;98777.21;;;32.21;31.77
62436;BME280;48480;50.252;18.848;2023-06-22T16:04:35;98771.31;;;32.12;31.79
62436;BME280;48480;50.252;18.848;2023-06-22T16:07:23;98771.08;;;32.10;32.04
62436;BME280;48480;50.252;18.848;2023-06-22T16:10:08;98769.20;;;32.09;32.07
62436;BME280;48480;50.252;18.848;2023-06-22T16:15:44;98764.48;;;32.06;32.39
62436;BME280;48480;50.252;18.848;2023-06-22T16:21:09;98762.27;;;31.94;32.43
62436;BME280;48480;50.252;18.848;2023-06-22T16:23:53;98762.98;;;31.86;32.60
62436;BME280;48480;50.252;18.848;2023-06-22T16:26:41;98761.45;;;31.82;32.46
62436;BME280;48480;50.252;18.848;2023-06-22T16:29:25;98760.32;;;31.80;32.74
62436;BME280;48480;50.252;18.848;2023-06-22T16:32:11;98755.45;;;31.79;33.04
62436;BME280;48480;50.252;18.848;2023-06-22T16:34:57;98756.88;;;31.79;32.96
62436;BME280;48480;50.252;18.848;2023-06-22T16:37:48;98756.56;;;31.75;32.62
62436;BME280;48480;50.252;18.848;2023-06-22T16:40:33;98755.55;;;31.68;32.70
62436;BME280;48480;50.252;18.848;2023-06-22T16:46:09;98747.63;;;31.53;32.76
62436;BME280;48480;50.252;18.848;2023-06-22T16:54:45;98742.14;;;31.41;32.88
62436;BME280;48480;50.252;18.848;2023-06-22T16:57:30;98743.39;;;31.37;33.15
62436;BME280;48480;50.252;18.848;2023-06-22T17:00:21;98738.14;;;31.33;33.00
62436;BME280;48480;50.252;18.848;2023-06-22T17:03:05;98735.30;;;31.31;33.45
62436;BME280;48480;50.252;18.848;2023-06-22T17:08:42;98726.71;;;31.16;32.91
62436;BME280;48480;50.252;18.848;2023-06-22T17:14:19;98720.06;;;30.95;33.29
62436;BME280;48480;50.252;18.848;2023-06-22T17:19:41;98721.23;;;30.77;33.30
62436;BME280;48480;50.252;18.848;2023-06-22T17:22:26;98716.76;;;30.69;33.73
62436;BME280;48480;50.252;18.848;2023-06-22T17:25:09;98718.73;;;30.64;34.27
62436;BME280;48480;50.252;18.848;2023-06-22T17:28:02;98709.25;;;30.54;34.21
62436;BME280;48480;50.252;18.848;2023-06-22T17:30:46;98714.42;;;30.52;33.99
62436;BME280;48480;50.252;18.848;2023-06-22T17:33:31;98705.65;;;30.41;34.56
62436;BME280;48480;50.252;18.848;2023-06-22T17:36:31;98713.09;;;30.35;36.02
62436;BME280;48480;50.252;18.848;2023-06-22T17:39:21;98706.52;;;30.23;36.56
62436;BME280;48480;50.252;18.848;2023-06-22T17:42:06;98706.41;;;30.10;36.93
62436;BME280;48480;50.252;18.848;2023-06-22T17:44:50;98696.95;;;29.94;37.29
62436;BME280;48480;50.252;18.848;2023-06-22T17:47:38;98694.67;;;29.83;37.50